createdAt,value
2017-08-24T00:01:49.193Z,10.90
2017-08-24T00:04:17.005Z,11.00
2017-08-24T00:06:44.658Z,11.00
2017-08-24T00:09:12.309Z,10.90
2017-08-24T00:11:39.983Z,10.90
2017-08-24T00:14:07.655Z,10.90
2017-08-24T00:16:35.296Z,10.90
2017-08-24T00:19:02.972Z,11.00
2017-08-24T00:21:30.610Z,11.00
2017-08-24T00:23:58.247Z,11.00
2017-08-24T00:26:25.918Z,10.90
2017-08-24T00:28:53.553Z,11.10
2017-08-24T00:31:21.185Z,11.00
2017-08-24T00:33:48.843Z,11.00
2017-08-24T00:36:16.496Z,11.00
2017-08-24T00:38:44.153Z,10.80
2017-08-24T00:41:11.809Z,10.80
2017-08-24T00:43:39.439Z,10.80
2017-08-24T00:46:07.175Z,10.70
2017-08-24T00:48:34.857Z,10.70
2017-08-24T00:51:02.500Z,10.60
2017-08-24T00:53:30.131Z,10.70
2017-08-24T00:55:57.848Z,10.70
2017-08-24T00:58:25.482Z,10.70
2017-08-24T01:00:53.362Z,10.70
2017-08-24T01:03:21.032Z,10.70
2017-08-24T01:05:48.655Z,10.80
2017-08-24T01:08:16.301Z,10.80
2017-08-24T01:10:44.036Z,10.80
2017-08-24T01:13:11.680Z,10.80
2017-08-24T01:15:39.309Z,10.70
2017-08-24T01:18:06.971Z,10.70
2017-08-24T01:20:34.600Z,10.60
2017-08-24T01:23:02.235Z,10.60
2017-08-24T01:25:29.909Z,10.60
2017-08-24T01:27:57.614Z,10.60
2017-08-24T01:30:25.271Z,10.60
2017-08-24T01:32:52.937Z,10.40
2017-08-24T01:35:20.570Z,10.60
2017-08-24T01:37:48.218Z,10.50
2017-08-24T01:40:15.897Z,10.40
2017-08-24T01:42:43.536Z,10.40
2017-08-24T01:45:11.179Z,10.40
2017-08-24T01:47:38.841Z,10.40
2017-08-24T01:50:06.575Z,10.50
2017-08-24T01:52:34.195Z,10.50
2017-08-24T01:55:01.883Z,10.40
2017-08-24T01:57:29.507Z,10.30
2017-08-24T01:59:57.269Z,10.30
2017-08-24T02:02:24.932Z,10.30
2017-08-24T02:04:52.595Z,10.30
2017-08-24T02:07:20.825Z,10.20
2017-08-24T02:09:48.738Z,10.30
2017-08-24T02:12:16.675Z,10.40
2017-08-24T02:14:44.352Z,10.50
2017-08-24T02:17:12.012Z,10.50
2017-08-24T02:19:39.646Z,10.60
2017-08-24T02:22:07.279Z,10.50
2017-08-24T02:24:34.948Z,10.50
2017-08-24T02:27:02.578Z,10.40
2017-08-24T02:29:30.229Z,10.40
2017-08-24T02:31:57.908Z,10.30
2017-08-24T02:34:25.534Z,10.20
2017-08-24T02:36:53.283Z,10.30
2017-08-24T02:39:20.950Z,10.20
2017-08-24T02:41:48.584Z,10.20
2017-08-24T02:44:16.244Z,10.20
2017-08-24T02:46:43.924Z,10.20
2017-08-24T02:49:11.556Z,10.20
2017-08-24T02:51:39.187Z,10.20
2017-08-24T02:54:06.887Z,10.20
2017-08-24T02:56:34.519Z,10.20
2017-08-24T02:59:02.157Z,10.20
2017-08-24T03:01:29.829Z,10.10
2017-08-24T03:03:57.713Z,10.10
2017-08-24T03:06:25.337Z,10.20
2017-08-24T03:08:53.044Z,10.10
2017-08-24T03:11:20.681Z,10.20
2017-08-24T03:13:48.316Z,10.20
2017-08-24T03:16:16.009Z,10.20
2017-08-24T03:18:43.640Z,10.30
2017-08-24T03:21:11.289Z,10.20
2017-08-24T03:23:38.969Z,10.10
2017-08-24T03:26:06.641Z,10.10
2017-08-24T03:28:34.265Z,10.00
2017-08-24T03:31:01.934Z,10.10
2017-08-24T03:33:29.589Z,10.10
2017-08-24T03:35:57.256Z,10.00
2017-08-24T03:38:24.934Z,10.10
2017-08-24T03:40:52.587Z,10.10
2017-08-24T03:43:20.442Z,10.10
2017-08-24T03:45:48.132Z,10.00
2017-08-24T03:48:15.756Z,10.10
2017-08-24T03:50:43.402Z,10.20
2017-08-24T03:53:11.072Z,10.10
2017-08-24T03:55:38.714Z,10.10
2017-08-24T03:58:06.530Z,10.20
2017-08-24T04:00:34.215Z,10.10
2017-08-24T04:03:01.874Z,9.90
2017-08-24T04:05:29.537Z,9.90
2017-08-24T04:07:57.430Z,9.90
2017-08-24T04:10:25.048Z,9.90
2017-08-24T04:12:52.676Z,9.90
2017-08-24T04:15:20.358Z,10.00
2017-08-24T04:17:47.991Z,10.10
2017-08-24T04:20:15.634Z,10.00
2017-08-24T04:22:43.373Z,10.00
2017-08-24T04:25:11.036Z,10.10
2017-08-24T04:27:38.655Z,10.10
2017-08-24T04:30:06.371Z,10.00
2017-08-24T04:32:33.991Z,10.10
2017-08-24T04:35:01.624Z,10.10
2017-08-24T04:37:29.299Z,10.10
2017-08-24T04:39:57.104Z,10.10
2017-08-24T04:42:24.755Z,10.30
2017-08-24T04:44:52.427Z,10.30
2017-08-24T04:47:20.704Z,10.40
2017-08-24T04:49:48.341Z,10.40
2017-08-24T04:52:16.123Z,10.60
2017-08-24T04:54:43.764Z,10.70
2017-08-24T04:57:11.395Z,10.80
2017-08-24T04:59:39.067Z,10.80
2017-08-24T05:02:06.706Z,11.00
2017-08-24T05:04:34.344Z,11.10
2017-08-24T05:07:02.009Z,11.20
2017-08-24T05:09:29.655Z,11.40
2017-08-24T05:11:57.312Z,11.60
2017-08-24T05:14:24.985Z,11.70
2017-08-24T05:16:52.633Z,12.00
2017-08-24T05:19:20.277Z,12.20
2017-08-24T05:21:47.940Z,12.30
2017-08-24T05:24:15.570Z,12.50
2017-08-24T05:26:43.339Z,12.60
2017-08-24T05:29:11.019Z,12.80
2017-08-24T05:31:38.648Z,12.90
2017-08-24T05:34:06.568Z,13.00
2017-08-24T05:36:34.316Z,13.20
2017-08-24T05:39:01.961Z,13.40
2017-08-24T05:41:29.594Z,13.50
2017-08-24T05:43:57.295Z,13.50
2017-08-24T05:46:24.936Z,13.60
2017-08-24T05:48:52.592Z,13.50
2017-08-24T05:51:20.286Z,13.70
2017-08-24T05:53:47.931Z,13.80
2017-08-24T05:56:15.591Z,14.00
2017-08-24T05:58:43.330Z,14.20
2017-08-24T06:01:10.972Z,14.30
2017-08-24T06:03:38.618Z,14.50
2017-08-24T06:06:06.283Z,14.60
2017-08-24T06:08:33.931Z,14.70
2017-08-24T06:11:01.590Z,15.00
2017-08-24T06:13:29.262Z,15.20
2017-08-24T06:15:56.907Z,15.30
2017-08-24T06:18:24.543Z,15.40
2017-08-24T06:20:52.228Z,15.50
2017-08-24T06:23:19.873Z,15.70
2017-08-24T06:25:47.518Z,15.70
2017-08-24T06:28:15.176Z,15.90
2017-08-24T06:30:42.825Z,16.00
2017-08-24T06:33:10.480Z,16.10
2017-08-24T06:35:38.160Z,16.30
2017-08-24T06:38:05.802Z,16.40
2017-08-24T06:40:33.451Z,16.60
2017-08-24T06:43:01.105Z,16.80
2017-08-24T06:45:28.727Z,17.10
2017-08-24T06:47:56.539Z,17.60
2017-08-24T06:50:24.197Z,17.80
2017-08-24T06:52:51.825Z,18.40
2017-08-24T06:55:19.434Z,19.20
2017-08-24T06:57:47.114Z,20.00
2017-08-24T07:00:14.727Z,20.50
2017-08-24T07:02:42.340Z,20.30
2017-08-24T07:05:09.993Z,20.20
2017-08-24T07:07:37.639Z,20.60
2017-08-24T07:10:05.295Z,21.00
2017-08-24T07:12:32.933Z,21.10
2017-08-24T07:15:00.554Z,21.70
2017-08-24T07:17:28.159Z,21.40
2017-08-24T07:19:55.809Z,21.30
2017-08-24T07:22:23.431Z,21.40
2017-08-24T07:24:51.032Z,21.70
2017-08-24T07:27:18.673Z,21.90
2017-08-24T07:29:46.299Z,21.90
2017-08-24T07:32:13.913Z,22.00
2017-08-24T07:34:41.560Z,21.90
2017-08-24T07:37:09.171Z,21.90
2017-08-24T07:39:36.806Z,21.80
2017-08-24T07:42:04.451Z,21.80
2017-08-24T07:44:32.061Z,21.60
2017-08-24T07:46:59.683Z,21.90
2017-08-24T07:49:27.335Z,22.20
2017-08-24T07:51:54.957Z,22.40
2017-08-24T07:54:22.567Z,22.90
2017-08-24T07:56:50.224Z,22.80
2017-08-24T07:59:17.828Z,23.30
2017-08-24T08:01:45.450Z,23.10
2017-08-24T08:04:13.114Z,22.80
2017-08-24T08:06:40.738Z,23.00
2017-08-24T08:09:08.341Z,23.40
2017-08-24T08:11:36.007Z,23.50
2017-08-24T08:14:03.620Z,23.80
2017-08-24T08:16:31.253Z,24.30
2017-08-24T08:18:58.904Z,24.50
2017-08-24T08:21:26.680Z,24.20
2017-08-24T08:23:54.287Z,24.60
2017-08-24T08:26:21.954Z,24.70
2017-08-24T08:28:49.608Z,24.90
2017-08-24T08:31:17.216Z,25.20
2017-08-24T08:33:44.864Z,25.30
2017-08-24T08:36:12.475Z,25.10
2017-08-24T08:38:40.084Z,24.60
2017-08-24T08:41:07.770Z,24.20
2017-08-24T08:43:35.377Z,24.10
2017-08-24T08:46:02.997Z,24.70
2017-08-24T08:48:30.645Z,24.70
2017-08-24T08:50:58.259Z,24.90
2017-08-24T08:53:25.915Z,24.50
2017-08-24T08:55:53.556Z,24.30
2017-08-24T08:58:21.166Z,24.40
2017-08-24T09:00:48.782Z,24.60
2017-08-24T09:03:16.627Z,24.70
2017-08-24T09:05:44.232Z,24.90
2017-08-24T09:08:11.857Z,24.90
2017-08-24T09:10:39.520Z,25.20
2017-08-24T09:13:07.151Z,25.10
2017-08-24T09:15:34.768Z,25.10
2017-08-24T09:18:02.414Z,24.60
2017-08-24T09:20:30.017Z,24.70
2017-08-24T09:22:57.653Z,24.90
2017-08-24T09:25:25.307Z,24.80
2017-08-24T09:27:52.945Z,24.70
2017-08-24T09:30:20.535Z,24.40
2017-08-24T09:32:48.274Z,24.50
2017-08-24T09:35:15.941Z,24.50
2017-08-24T09:37:43.619Z,24.40
2017-08-24T09:40:11.259Z,24.10
2017-08-24T09:42:38.870Z,24.10
2017-08-24T09:45:06.577Z,24.10
2017-08-24T09:47:34.218Z,24.00
2017-08-24T09:50:01.819Z,24.00
2017-08-24T09:52:31.085Z,23.80
2017-08-24T09:54:58.736Z,23.80
2017-08-24T09:57:26.574Z,23.80
2017-08-24T09:59:54.202Z,23.80
2017-08-24T10:02:21.858Z,23.60
2017-08-24T10:04:49.458Z,23.60
2017-08-24T10:07:17.077Z,23.60
2017-08-24T10:09:44.738Z,23.60
2017-08-24T10:12:12.365Z,23.80
2017-08-24T10:14:39.993Z,23.80
2017-08-24T10:17:07.688Z,24.00
2017-08-24T10:19:35.313Z,24.10
2017-08-24T10:22:02.920Z,24.20
2017-08-24T10:24:30.588Z,24.40
2017-08-24T10:26:58.192Z,24.60
2017-08-24T10:29:25.898Z,24.40
2017-08-24T10:31:53.506Z,24.50
2017-08-24T10:34:21.122Z,24.30
2017-08-24T10:36:48.722Z,24.30
2017-08-24T10:39:16.357Z,24.40
2017-08-24T10:41:43.979Z,24.50
2017-08-24T10:44:11.598Z,24.80
2017-08-24T10:46:39.242Z,25.00
2017-08-24T10:49:06.856Z,25.30
2017-08-24T10:51:34.474Z,25.40
2017-08-24T10:54:02.126Z,25.30
2017-08-24T10:56:29.809Z,25.20
2017-08-24T10:58:57.585Z,25.30
2017-08-24T11:01:25.243Z,25.30
2017-08-24T11:03:52.857Z,25.00
2017-08-24T11:06:20.463Z,25.10
2017-08-24T11:08:48.120Z,25.40
2017-08-24T11:11:15.762Z,25.60
2017-08-24T11:13:43.370Z,25.70
2017-08-24T11:16:11.014Z,25.60
2017-08-24T11:18:38.637Z,25.60
2017-08-24T11:21:06.271Z,25.70
2017-08-24T11:23:33.909Z,25.60
2017-08-24T11:26:01.539Z,25.40
2017-08-24T11:28:29.155Z,25.20
2017-08-24T11:30:56.804Z,25.30
2017-08-24T11:33:24.421Z,25.40
2017-08-24T11:35:52.044Z,25.60
2017-08-24T11:38:19.694Z,25.50
2017-08-24T11:40:47.311Z,25.10
2017-08-24T11:43:14.925Z,25.20
2017-08-24T11:45:42.578Z,25.40
2017-08-24T11:48:10.182Z,25.60
2017-08-24T11:50:37.798Z,25.30
2017-08-24T11:53:05.461Z,25.40
2017-08-24T11:55:33.140Z,25.50
2017-08-24T11:58:00.748Z,25.60
2017-08-24T12:00:28.384Z,25.70
2017-08-24T12:02:56.201Z,25.80
2017-08-24T12:05:23.830Z,25.50
2017-08-24T12:07:51.476Z,25.50
2017-08-24T12:10:19.085Z,25.60
2017-08-24T12:12:46.701Z,25.20
2017-08-24T12:15:14.638Z,25.20
2017-08-24T12:17:42.264Z,25.30
2017-08-24T12:20:09.886Z,25.40
2017-08-24T12:22:37.677Z,25.30
2017-08-24T12:25:05.285Z,25.40
2017-08-24T12:27:32.905Z,25.30
2017-08-24T12:30:00.667Z,25.50
2017-08-24T12:32:28.275Z,25.40
2017-08-24T12:34:55.890Z,25.30
2017-08-24T12:37:23.552Z,25.10
2017-08-24T12:39:51.170Z,25.30
2017-08-24T12:42:18.821Z,25.30
2017-08-24T12:44:46.603Z,25.20
2017-08-24T12:47:14.216Z,25.30
2017-08-24T12:49:41.831Z,25.50
2017-08-24T12:52:09.472Z,25.60
2017-08-24T12:54:37.097Z,25.60
2017-08-24T12:57:04.713Z,25.50
2017-08-24T12:59:32.360Z,25.30
2017-08-24T13:01:59.959Z,25.40
2017-08-24T13:04:27.616Z,25.30
2017-08-24T13:06:55.261Z,25.40
2017-08-24T13:09:22.868Z,25.30
2017-08-24T13:11:50.478Z,25.40
2017-08-24T13:14:18.140Z,25.60
2017-08-24T13:16:45.778Z,25.70
2017-08-24T13:19:13.377Z,25.90
2017-08-24T13:21:41.025Z,25.90
2017-08-24T13:24:08.648Z,26.10
2017-08-24T13:26:36.265Z,26.30
2017-08-24T13:29:03.924Z,26.40
2017-08-24T13:31:31.530Z,26.50
2017-08-24T13:33:59.145Z,26.60
2017-08-24T13:36:26.791Z,26.60
2017-08-24T13:38:54.412Z,26.60
2017-08-24T13:41:22.027Z,26.60
2017-08-24T13:43:49.681Z,26.70
2017-08-24T13:46:17.297Z,26.70
2017-08-24T13:48:44.920Z,26.60
2017-08-24T13:51:12.577Z,26.50
2017-08-24T13:53:40.191Z,26.40
2017-08-24T13:56:07.833Z,26.20
2017-08-24T13:58:35.496Z,26.20
2017-08-24T14:01:03.211Z,26.20
2017-08-24T14:03:30.836Z,26.10
2017-08-24T14:05:58.476Z,26.00
2017-08-24T14:08:26.216Z,25.90
2017-08-24T14:10:53.831Z,26.10
2017-08-24T14:13:21.476Z,26.10
2017-08-24T14:15:49.123Z,26.40
2017-08-24T14:18:16.743Z,26.30
2017-08-24T14:20:44.367Z,26.20
2017-08-24T14:23:11.976Z,26.00
2017-08-24T14:25:39.589Z,25.80
2017-08-24T14:28:07.312Z,25.60
2017-08-24T14:30:34.915Z,25.40
2017-08-24T14:33:02.525Z,25.40
2017-08-24T14:35:30.163Z,25.40
2017-08-24T14:37:57.782Z,25.30
2017-08-24T14:40:25.406Z,25.30
2017-08-24T14:42:53.355Z,25.30
2017-08-24T14:45:20.959Z,25.30
2017-08-24T14:47:48.592Z,25.20
2017-08-24T14:50:16.260Z,25.10
2017-08-24T14:52:43.872Z,25.10
2017-08-24T14:55:11.489Z,25.00
2017-08-24T14:57:39.139Z,25.00
2017-08-24T15:00:06.749Z,25.00
2017-08-24T15:02:34.371Z,25.10
2017-08-24T15:05:02.034Z,25.00
2017-08-24T15:07:29.645Z,25.00
2017-08-24T15:09:57.296Z,25.00
2017-08-24T15:12:24.937Z,25.00
2017-08-24T15:14:52.556Z,24.90
2017-08-24T15:17:20.177Z,25.00
2017-08-24T15:19:47.808Z,24.90
2017-08-24T15:22:15.401Z,24.90
2017-08-24T15:24:43.037Z,24.90
2017-08-24T15:27:10.685Z,24.80
2017-08-24T15:29:38.301Z,24.70
2017-08-24T15:32:05.921Z,24.70
2017-08-24T15:34:33.572Z,24.60
2017-08-24T15:37:01.466Z,24.60
2017-08-24T15:39:29.074Z,24.60
2017-08-24T15:41:56.749Z,24.60
2017-08-24T15:44:24.361Z,24.50
2017-08-24T15:46:51.978Z,24.60
2017-08-24T15:49:19.622Z,24.50
2017-08-24T15:51:47.281Z,24.50
2017-08-24T15:54:14.899Z,24.40
2017-08-24T15:56:42.550Z,24.30
2017-08-24T15:59:10.188Z,24.20
2017-08-24T16:01:37.788Z,24.10
2017-08-24T16:04:05.464Z,24.10
2017-08-24T16:06:33.091Z,24.00
2017-08-24T16:09:00.713Z,23.80
2017-08-24T16:11:28.373Z,23.70
2017-08-24T16:13:56.262Z,23.60
2017-08-24T16:16:23.898Z,23.50
2017-08-24T16:18:51.552Z,23.50
2017-08-24T16:21:19.178Z,23.40
2017-08-24T16:23:46.807Z,23.30
2017-08-24T16:26:14.465Z,23.20
2017-08-24T16:28:42.083Z,23.10
2017-08-24T16:31:09.696Z,23.00
2017-08-24T16:33:37.347Z,22.90
2017-08-24T16:36:05.041Z,22.70
2017-08-24T16:38:32.668Z,22.70
2017-08-24T16:41:00.337Z,22.60
2017-08-24T16:43:27.985Z,22.60
2017-08-24T16:45:55.724Z,22.70
2017-08-24T16:48:23.402Z,22.70
2017-08-24T16:50:51.016Z,22.60
2017-08-24T16:53:18.644Z,22.60
2017-08-24T16:55:50.507Z,22.60
2017-08-24T16:58:18.268Z,22.50
2017-08-24T17:00:45.904Z,22.30
2017-08-24T17:03:13.591Z,22.30
2017-08-24T17:05:45.621Z,22.20
2017-08-24T17:08:13.771Z,22.20
2017-08-24T17:10:41.568Z,22.10
2017-08-24T17:13:09.227Z,22.10
2017-08-24T17:15:36.985Z,22.10
2017-08-24T17:18:04.620Z,22.10
2017-08-24T17:20:32.237Z,22.10
2017-08-24T17:22:59.899Z,22.00
2017-08-24T17:25:27.635Z,22.10
2017-08-24T17:27:55.355Z,22.00
2017-08-24T17:30:23.035Z,21.90
2017-08-24T17:32:50.663Z,21.90
2017-08-24T17:35:18.284Z,21.80
2017-08-24T17:37:45.971Z,21.80
2017-08-24T17:40:13.606Z,21.80
2017-08-24T17:42:41.231Z,21.70
2017-08-24T17:45:08.886Z,21.70
2017-08-24T17:47:36.535Z,21.60
2017-08-24T17:50:04.194Z,21.60
2017-08-24T17:52:31.849Z,21.50
2017-08-24T17:54:59.484Z,21.50
2017-08-24T17:57:27.135Z,21.40
2017-08-24T17:59:54.823Z,21.30
2017-08-24T18:02:22.482Z,21.30
2017-08-24T18:04:50.168Z,21.20
2017-08-24T18:07:17.809Z,21.10
2017-08-24T18:09:45.626Z,21.10
2017-08-24T18:12:13.255Z,21.10
2017-08-24T18:14:40.940Z,21.00
2017-08-24T18:17:08.558Z,21.00
2017-08-24T18:19:36.236Z,20.90
2017-08-24T18:22:03.914Z,20.90
2017-08-24T18:24:31.542Z,20.80
2017-08-24T18:26:59.177Z,20.70
2017-08-24T18:29:26.845Z,20.60
2017-08-24T18:31:54.752Z,20.50
2017-08-24T18:34:22.399Z,20.40
2017-08-24T18:36:50.061Z,20.20
2017-08-24T18:39:17.698Z,20.10
2017-08-24T18:41:45.333Z,20.00
2017-08-24T18:44:12.997Z,19.90
2017-08-24T18:46:40.616Z,19.80
2017-08-24T18:49:08.242Z,19.70
2017-08-24T18:51:35.900Z,19.60
2017-08-24T18:54:03.536Z,19.40
2017-08-24T18:56:31.171Z,19.40
2017-08-24T18:58:58.851Z,19.30
2017-08-24T19:01:26.578Z,19.30
2017-08-24T19:03:54.212Z,19.20
2017-08-24T19:06:21.885Z,19.10
2017-08-24T19:08:49.517Z,19.10
2017-08-24T19:11:17.128Z,19.00
2017-08-24T19:13:45.555Z,18.90
2017-08-24T19:16:13.195Z,18.80
2017-08-24T19:18:40.807Z,18.80
2017-08-24T19:21:20.245Z,18.80
2017-08-24T19:23:50.323Z,18.70
2017-08-24T19:26:17.969Z,18.70
2017-08-24T19:28:45.593Z,18.60
2017-08-24T19:31:13.207Z,18.60
2017-08-24T19:33:40.865Z,18.50
2017-08-24T19:36:08.510Z,18.50
2017-08-24T19:38:36.141Z,18.50
2017-08-24T19:41:03.800Z,18.40
2017-08-24T19:43:31.415Z,18.40
2017-08-24T19:45:59.037Z,18.40
2017-08-24T19:48:26.747Z,18.30
2017-08-24T19:50:54.365Z,18.40
2017-08-24T19:53:21.977Z,18.40
2017-08-24T19:55:49.632Z,18.40
2017-08-24T19:58:17.244Z,18.40
2017-08-24T20:00:44.884Z,18.40
2017-08-24T20:03:13.490Z,18.50
2017-08-24T20:05:42.175Z,18.50
2017-08-24T20:08:09.792Z,18.50
2017-08-24T20:10:37.437Z,18.60
2017-08-24T20:13:05.058Z,18.60
2017-08-24T20:15:32.674Z,18.60
2017-08-24T20:18:00.315Z,18.60
2017-08-24T20:20:27.930Z,18.50
2017-08-24T20:22:55.696Z,18.50
2017-08-24T20:25:23.352Z,18.40
2017-08-24T20:27:50.991Z,18.40
2017-08-24T20:30:18.645Z,18.40
2017-08-24T20:32:46.648Z,18.40
2017-08-24T20:35:15.134Z,18.40
2017-08-24T20:37:42.777Z,18.50
2017-08-24T20:40:10.483Z,18.50
2017-08-24T20:42:38.152Z,18.50
2017-08-24T20:45:05.908Z,18.40
2017-08-24T20:47:33.559Z,18.50
2017-08-24T20:50:01.197Z,18.50
2017-08-24T20:52:28.849Z,18.50
2017-08-24T20:54:56.610Z,18.50
2017-08-24T20:57:24.243Z,18.50
2017-08-24T20:59:51.869Z,18.50
2017-08-24T21:02:19.532Z,18.50
2017-08-24T21:04:47.271Z,18.50
2017-08-24T21:07:14.902Z,18.50
2017-08-24T21:09:42.549Z,18.50
2017-08-24T21:12:10.188Z,18.40
2017-08-24T21:14:37.835Z,18.30
2017-08-24T21:17:07.073Z,18.20
2017-08-24T21:19:34.750Z,18.20
2017-08-24T21:22:02.377Z,18.20
2017-08-24T21:24:30.036Z,18.20
2017-08-24T21:26:57.860Z,18.10
2017-08-24T21:29:25.758Z,18.00
2017-08-24T21:31:53.489Z,18.00
2017-08-24T21:34:21.099Z,18.00
2017-08-24T21:36:48.712Z,17.90
2017-08-24T21:39:16.577Z,17.90
2017-08-24T21:41:44.206Z,17.80
2017-08-24T21:44:11.834Z,17.70
2017-08-24T21:46:39.533Z,17.80
2017-08-24T21:49:07.266Z,17.70
2017-08-24T21:51:34.922Z,17.60
2017-08-24T21:54:02.719Z,17.50
2017-08-24T21:56:30.348Z,17.50
2017-08-24T21:58:57.996Z,17.50
2017-08-24T22:01:25.774Z,17.40
2017-08-24T22:03:53.410Z,17.40
2017-08-24T22:06:21.028Z,17.40
2017-08-24T22:08:48.704Z,17.40
2017-08-24T22:11:16.633Z,17.50
2017-08-24T22:13:44.268Z,17.40
2017-08-24T22:16:11.929Z,17.30
2017-08-24T22:18:39.582Z,17.20
2017-08-24T22:21:07.325Z,17.20
2017-08-24T22:23:34.985Z,17.10
2017-08-24T22:26:02.637Z,17.10
2017-08-24T22:28:30.285Z,17.20
2017-08-24T22:30:57.945Z,17.10
2017-08-24T22:33:25.623Z,17.20
2017-08-24T22:35:53.339Z,17.20
2017-08-24T22:38:21.012Z,17.20
2017-08-24T22:40:48.639Z,17.10
2017-08-24T22:43:16.304Z,17.20
2017-08-24T22:45:43.987Z,17.20
2017-08-24T22:48:11.615Z,17.10
2017-08-24T22:50:39.289Z,17.10
2017-08-24T22:53:12.557Z,17.10
2017-08-24T22:55:46.196Z,17.00
2017-08-24T23:01:25.494Z,17.00
2017-08-24T23:04:00.769Z,17.00
2017-08-24T23:06:28.428Z,17.00
2017-08-24T23:08:56.255Z,17.00
2017-08-24T23:11:23.944Z,17.10
2017-08-24T23:13:51.601Z,17.00
2017-08-24T23:16:19.261Z,17.10
2017-08-24T23:18:46.936Z,17.00
2017-08-24T23:21:14.591Z,17.00
2017-08-24T23:23:42.214Z,17.10
2017-08-24T23:26:09.892Z,17.10
2017-08-24T23:28:37.581Z,17.10
2017-08-24T23:31:05.214Z,17.10
2017-08-24T23:33:32.873Z,17.10
2017-08-24T23:36:00.527Z,17.00
2017-08-24T23:38:28.185Z,16.90
2017-08-24T23:40:55.889Z,16.90
2017-08-24T23:43:23.552Z,16.80
2017-08-24T23:45:51.190Z,16.80
2017-08-24T23:48:18.880Z,16.80
2017-08-24T23:50:46.696Z,16.70
2017-08-24T23:53:14.340Z,16.70
2017-08-24T23:55:42.026Z,16.60
2017-08-24T23:58:09.682Z,16.50
